createdAt,value
2022-10-14T00:01:13.528Z,16.13
2022-10-14T00:03:41.020Z,15.13
2022-10-14T00:06:13.202Z,15.52
2022-10-14T00:08:40.764Z,15.98
2022-10-14T00:11:22.043Z,14.77
2022-10-14T00:13:49.503Z,14.95
2022-10-14T00:16:22.145Z,15.40
2022-10-14T00:18:49.677Z,15.80
2022-10-14T00:21:16.859Z,15.63
2022-10-14T00:23:44.509Z,15.75
2022-10-14T00:26:32.876Z,15.18
2022-10-14T00:29:00.539Z,15.77
2022-10-14T00:31:31.621Z,15.30
2022-10-14T00:33:58.899Z,15.40
2022-10-14T00:36:26.346Z,14.40
2022-10-14T00:38:54.226Z,14.93
2022-10-14T00:41:26.379Z,15.17
2022-10-14T00:44:17.025Z,14.63
2022-10-14T00:46:45.879Z,15.15
2022-10-14T00:49:31.739Z,14.85
2022-10-14T00:52:02.747Z,14.15
2022-10-14T00:54:37.639Z,14.67
2022-10-14T00:57:05.387Z,14.30
2022-10-14T00:59:33.024Z,15.13
2022-10-14T01:02:00.313Z,14.52
2022-10-14T01:04:27.694Z,15.20
2022-10-14T01:07:01.340Z,14.37
2022-10-14T01:09:35.999Z,15.65
2022-10-14T01:12:29.202Z,15.80
2022-10-14T01:15:00.208Z,14.32
2022-10-14T01:17:34.349Z,14.23
2022-10-14T01:20:13.737Z,14.10
2022-10-14T01:23:09.414Z,15.27
2022-10-14T01:26:06.757Z,14.73
2022-10-14T01:28:45.761Z,14.35
2022-10-14T01:31:16.956Z,14.23
2022-10-14T01:33:45.079Z,14.83
2022-10-14T01:36:22.015Z,13.85
2022-10-14T01:39:03.053Z,14.23
2022-10-14T01:41:36.096Z,14.20
2022-10-14T01:44:05.826Z,14.55
2022-10-14T01:46:33.074Z,15.07
2022-10-14T01:49:07.431Z,15.02
2022-10-14T01:51:51.237Z,15.18
2022-10-14T01:54:21.064Z,14.57
2022-10-14T01:56:48.376Z,14.75
2022-10-14T01:59:16.507Z,15.40
2022-10-14T02:01:43.877Z,14.57
2022-10-14T02:04:16.460Z,14.68
2022-10-14T02:07:12.696Z,14.05
2022-10-14T02:10:01.516Z,14.48
2022-10-14T02:12:31.832Z,14.73
2022-10-14T02:15:28.721Z,14.48
2022-10-14T02:17:59.000Z,14.77
2022-10-14T02:20:31.927Z,14.27
2022-10-14T02:23:12.118Z,16.42
2022-10-14T02:25:40.424Z,14.97
2022-10-14T02:28:09.274Z,14.40
2022-10-14T02:30:39.475Z,14.88
2022-10-14T02:33:07.605Z,14.98
2022-10-14T02:35:34.925Z,15.07
2022-10-14T02:38:05.074Z,15.47
2022-10-14T02:40:40.610Z,15.02
2022-10-14T02:43:10.733Z,15.68
2022-10-14T02:45:38.977Z,16.30
2022-10-14T02:48:06.534Z,16.42
2022-10-14T02:50:33.901Z,15.30
2022-10-14T02:53:01.101Z,15.95
2022-10-14T02:55:28.351Z,17.27
2022-10-14T02:57:55.584Z,16.23
2022-10-14T03:00:22.917Z,16.13
2022-10-14T03:02:50.187Z,17.17
2022-10-14T03:05:19.651Z,15.90
2022-10-14T03:07:47.161Z,16.23
2022-10-14T03:10:17.909Z,16.17
2022-10-14T03:12:45.293Z,15.65
2022-10-14T03:15:21.313Z,15.57
2022-10-14T03:17:50.090Z,15.55
2022-10-14T03:20:21.403Z,16.55
2022-10-14T03:22:52.603Z,16.45
2022-10-14T03:25:20.009Z,16.80
2022-10-14T03:27:56.586Z,16.37
2022-10-14T03:30:35.462Z,16.15
2022-10-14T03:33:13.228Z,16.38
2022-10-14T03:35:47.437Z,17.15
2022-10-14T03:38:18.839Z,14.70
2022-10-14T03:40:47.543Z,15.80
2022-10-14T03:43:15.245Z,16.30
2022-10-14T03:45:54.873Z,15.57
2022-10-14T03:48:24.646Z,16.85
2022-10-14T03:50:56.311Z,16.30
2022-10-14T03:53:24.944Z,15.47
2022-10-14T03:55:52.542Z,16.13
2022-10-14T03:58:20.531Z,15.63
2022-10-14T04:00:57.214Z,16.55
2022-10-14T04:03:53.430Z,17.38
2022-10-14T04:06:21.006Z,14.33
2022-10-14T04:08:50.950Z,15.48
2022-10-14T04:11:27.450Z,14.90
2022-10-14T04:14:00.538Z,15.25
2022-10-14T04:16:30.007Z,15.35
2022-10-14T04:19:04.261Z,16.87
2022-10-14T04:21:32.024Z,17.63
2022-10-14T04:23:59.305Z,17.10
2022-10-14T04:26:52.676Z,17.30
2022-10-14T04:29:38.363Z,18.15
2022-10-14T04:32:12.892Z,17.00
2022-10-14T04:34:40.317Z,17.08
2022-10-14T04:37:09.055Z,16.73
2022-10-14T04:40:02.480Z,16.50
2022-10-14T04:42:31.640Z,16.90
2022-10-14T04:45:02.754Z,16.73
2022-10-14T04:47:48.345Z,16.38
2022-10-14T04:50:18.969Z,16.70
2022-10-14T04:53:09.439Z,16.23
2022-10-14T04:55:46.959Z,15.02
2022-10-14T04:58:14.357Z,15.53
2022-10-14T05:00:43.776Z,15.55
2022-10-14T05:03:24.794Z,15.18
2022-10-14T05:05:52.702Z,15.07
2022-10-14T05:08:20.618Z,15.90
2022-10-14T05:10:54.097Z,16.23
2022-10-14T05:13:35.864Z,15.95
2022-10-14T05:16:08.067Z,14.77
2022-10-14T05:18:37.188Z,16.23
2022-10-14T05:21:19.256Z,17.23
2022-10-14T05:24:14.509Z,17.17
2022-10-14T05:26:47.895Z,18.63
2022-10-14T05:29:17.177Z,19.15
2022-10-14T05:31:44.952Z,19.42
2022-10-14T05:34:26.829Z,19.33
2022-10-14T05:36:56.594Z,19.63
2022-10-14T05:39:24.327Z,18.58
2022-10-14T05:41:53.192Z,18.95
2022-10-14T05:44:25.245Z,18.45
2022-10-14T05:46:54.216Z,18.95
2022-10-14T05:49:22.150Z,18.13
2022-10-14T05:51:49.536Z,18.30
2022-10-14T05:54:22.364Z,19.20
2022-10-14T05:56:52.841Z,17.92
2022-10-14T05:59:20.863Z,19.55
2022-10-14T06:01:48.558Z,17.73
2022-10-14T06:04:20.136Z,18.52
2022-10-14T06:06:52.355Z,20.23
2022-10-14T06:09:30.591Z,19.40
2022-10-14T06:11:58.637Z,18.73
2022-10-14T06:14:26.313Z,18.63
2022-10-14T06:17:39.915Z,19.57
2022-10-14T06:20:11.396Z,18.92
2022-10-14T06:22:39.548Z,19.52
2022-10-14T06:25:08.917Z,19.60
2022-10-14T06:27:36.587Z,18.42
2022-10-14T06:30:04.793Z,17.30
2022-10-14T06:32:32.869Z,19.23
2022-10-14T06:35:00.939Z,20.38
2022-10-14T06:37:30.040Z,20.00
2022-10-14T06:39:57.894Z,21.13
2022-10-14T06:42:28.086Z,21.00
2022-10-14T06:44:57.109Z,20.60
2022-10-14T06:47:24.979Z,20.40
2022-10-14T06:49:52.320Z,20.80
2022-10-14T06:52:21.826Z,19.88
2022-10-14T06:54:50.149Z,20.77
2022-10-14T06:57:20.564Z,18.67
2022-10-14T06:59:51.320Z,18.15
2022-10-14T07:02:22.348Z,17.77
2022-10-14T07:04:50.060Z,17.42
2022-10-14T07:07:18.858Z,16.77
2022-10-14T07:09:47.346Z,17.13
2022-10-14T07:12:17.837Z,16.48
2022-10-14T07:14:45.832Z,18.20
2022-10-14T07:17:19.981Z,18.15
2022-10-14T07:19:48.352Z,19.77
2022-10-14T07:22:17.830Z,20.85
2022-10-14T07:24:46.332Z,19.02
2022-10-14T07:27:16.641Z,17.30
2022-10-14T07:29:44.206Z,18.33
2022-10-14T07:32:11.596Z,19.60
2022-10-14T07:34:39.048Z,19.98
2022-10-14T07:37:06.408Z,22.42
2022-10-14T07:39:34.085Z,21.33
2022-10-14T07:42:01.822Z,21.48
2022-10-14T07:44:29.666Z,22.03
2022-10-14T07:46:58.860Z,23.02
2022-10-14T07:49:26.512Z,23.33
2022-10-14T07:51:54.461Z,23.02
2022-10-14T07:54:24.175Z,22.60
2022-10-14T07:56:53.543Z,22.10
2022-10-14T07:59:21.290Z,22.25
2022-10-14T08:01:49.853Z,22.50
2022-10-14T08:04:18.019Z,22.88
2022-10-14T08:06:49.024Z,22.73
2022-10-14T08:09:35.017Z,23.20
2022-10-14T08:12:03.584Z,21.38
2022-10-14T08:14:32.982Z,23.25
2022-10-14T08:17:02.802Z,22.33
2022-10-14T08:19:53.838Z,22.08
2022-10-14T08:33:52.251Z,21.37
2022-10-14T08:36:20.735Z,21.40
2022-10-14T08:38:55.942Z,22.02
2022-10-14T08:41:51.473Z,23.70
2022-10-14T08:44:34.042Z,22.65
2022-10-14T08:47:04.763Z,23.90
2022-10-14T08:50:01.656Z,22.58
2022-10-14T08:52:43.398Z,21.73
2022-10-14T08:55:44.036Z,21.67
2022-10-14T08:58:20.698Z,22.23
2022-10-14T09:00:50.800Z,22.67
2022-10-14T09:03:24.183Z,23.23
2022-10-14T09:06:24.947Z,23.75
2022-10-14T09:08:59.492Z,24.67
2022-10-14T09:11:29.564Z,27.40
2022-10-14T09:14:23.194Z,25.07
2022-10-14T09:16:57.351Z,26.10
2022-10-14T09:20:05.462Z,24.02
2022-10-14T09:22:33.162Z,23.02
2022-10-14T09:25:01.445Z,23.88
2022-10-14T09:27:30.284Z,24.73
2022-10-14T09:30:00.202Z,25.77
2022-10-14T09:32:41.110Z,25.38
2022-10-14T09:35:32.584Z,26.75
2022-10-14T09:37:59.959Z,28.35
2022-10-14T09:40:32.097Z,27.98
2022-10-14T09:43:08.668Z,26.00
2022-10-14T09:46:04.027Z,28.17
2022-10-14T09:48:39.682Z,26.98
2022-10-14T09:51:23.877Z,26.98
2022-10-14T09:53:53.636Z,25.45
2022-10-14T09:56:39.014Z,27.70
2022-10-14T09:59:20.732Z,26.75
2022-10-14T10:02:02.138Z,28.92
2022-10-14T10:04:47.853Z,29.67
2022-10-14T10:07:34.925Z,27.88
2022-10-14T10:10:23.357Z,27.07
2022-10-14T10:13:13.412Z,25.80
2022-10-14T10:15:44.678Z,24.48
2022-10-14T10:18:19.735Z,24.25
2022-10-14T10:21:08.823Z,24.17
2022-10-14T10:23:37.078Z,22.67
2022-10-14T10:26:18.825Z,23.50
2022-10-14T10:28:50.270Z,23.00
2022-10-14T10:31:33.743Z,23.15
2022-10-14T10:34:28.570Z,24.02
2022-10-14T10:37:00.902Z,24.10
2022-10-14T10:39:54.006Z,25.77
2022-10-14T10:42:26.195Z,24.13
2022-10-14T10:45:06.746Z,23.95
2022-10-14T10:47:41.251Z,23.35
2022-10-14T10:50:38.167Z,23.20
2022-10-14T10:53:20.918Z,23.38
2022-10-14T10:56:13.690Z,23.00
2022-10-14T10:59:07.475Z,24.98
2022-10-14T11:01:55.214Z,22.63
2022-10-14T11:04:38.405Z,22.77
2022-10-14T11:08:05.882Z,23.10
2022-10-14T11:11:30.791Z,23.48
2022-10-14T11:14:13.575Z,22.23
2022-10-14T11:17:09.095Z,22.52
2022-10-14T11:20:22.855Z,22.63
2022-10-14T11:23:21.643Z,23.17
2022-10-14T11:26:21.411Z,23.75
2022-10-14T11:29:23.473Z,24.60
2022-10-14T11:31:54.968Z,24.63
2022-10-14T11:34:43.187Z,23.77
2022-10-14T11:37:29.175Z,23.50
2022-10-14T11:40:10.651Z,24.63
2022-10-14T11:43:11.101Z,23.95
2022-10-14T11:45:47.278Z,23.85
2022-10-14T11:48:24.069Z,23.42
2022-10-14T11:50:58.811Z,23.80
2022-10-14T11:53:48.521Z,24.13
2022-10-14T11:57:11.144Z,22.60
2022-10-14T12:00:05.535Z,22.98
2022-10-14T12:02:54.410Z,24.92
2022-10-14T12:05:53.339Z,22.30
2022-10-14T12:08:37.483Z,22.60
2022-10-14T12:11:28.456Z,23.77
2022-10-14T12:14:34.892Z,22.88
2022-10-14T12:17:05.674Z,24.08
2022-10-14T12:19:33.044Z,22.67
2022-10-14T12:22:09.524Z,23.45
2022-10-14T12:24:38.279Z,25.25
2022-10-14T12:27:06.696Z,24.13
2022-10-14T12:29:41.612Z,23.23
2022-10-14T12:32:20.374Z,23.73
2022-10-14T12:34:55.159Z,22.98
2022-10-14T12:37:31.634Z,22.45
2022-10-14T12:40:02.466Z,23.90
2022-10-14T12:42:30.937Z,25.42
2022-10-14T12:45:14.386Z,23.27
2022-10-14T12:47:41.831Z,23.77
2022-10-14T12:50:16.642Z,23.27
2022-10-14T12:52:48.416Z,23.88
2022-10-14T12:55:20.554Z,22.85
2022-10-14T12:58:02.431Z,21.33
2022-10-14T13:00:35.646Z,21.55
2022-10-14T13:03:04.174Z,19.58
2022-10-14T13:05:43.047Z,19.52
2022-10-14T13:08:12.133Z,20.00
2022-10-14T13:10:45.183Z,20.27
2022-10-14T13:13:42.344Z,18.65
2022-10-14T13:16:10.794Z,20.42
2022-10-14T13:18:44.226Z,20.48
2022-10-14T13:21:41.514Z,21.27
2022-10-14T13:24:18.040Z,20.50
2022-10-14T13:26:51.633Z,20.25
2022-10-14T13:29:40.341Z,21.98
2022-10-14T13:32:38.713Z,21.13
2022-10-14T13:35:22.064Z,20.30
2022-10-14T13:38:13.177Z,22.40
2022-10-14T13:40:44.797Z,21.45
2022-10-14T13:43:19.181Z,20.73
2022-10-14T13:45:55.488Z,19.70
2022-10-14T13:48:29.599Z,20.38
2022-10-14T13:51:24.687Z,22.47
2022-10-14T13:54:17.791Z,23.42
2022-10-14T13:57:13.801Z,21.90
2022-10-14T14:00:11.620Z,20.80
2022-10-14T14:02:40.870Z,22.40
2022-10-14T14:05:14.205Z,21.80
2022-10-14T14:08:21.707Z,22.92
2022-10-14T14:10:29.217Z,21.23
2022-10-14T14:12:56.871Z,22.58
2022-10-14T14:15:26.725Z,22.83
2022-10-14T14:17:54.624Z,21.87
2022-10-14T14:20:24.022Z,21.88
2022-10-14T14:22:53.943Z,22.45
2022-10-14T14:25:34.024Z,21.88
2022-10-14T14:28:02.998Z,22.35
2022-10-14T14:30:30.396Z,22.00
2022-10-14T14:32:59.763Z,22.77
2022-10-14T14:35:27.602Z,22.05
2022-10-14T14:37:56.440Z,21.80
2022-10-14T14:40:28.835Z,23.83
2022-10-14T14:43:02.028Z,23.80
2022-10-14T14:45:31.199Z,22.90
2022-10-14T14:48:01.718Z,22.88
2022-10-14T14:50:48.880Z,22.10
2022-10-14T14:53:24.057Z,20.65
2022-10-14T14:55:54.495Z,21.77
2022-10-14T14:58:26.680Z,21.67
2022-10-14T15:00:55.188Z,23.92
2022-10-14T15:03:24.529Z,22.92
2022-10-14T15:06:02.039Z,24.02
2022-10-14T15:08:36.329Z,24.17
2022-10-14T15:11:03.924Z,22.52
2022-10-14T15:13:40.436Z,23.60
2022-10-14T15:16:07.991Z,22.58
2022-10-14T15:18:37.736Z,22.27
2022-10-14T15:21:11.740Z,24.43
2022-10-14T15:23:53.402Z,23.08
2022-10-14T15:26:34.824Z,24.20
2022-10-14T15:29:08.351Z,24.30
2022-10-14T15:31:35.999Z,24.52
2022-10-14T15:34:03.356Z,25.30
2022-10-14T15:36:34.479Z,26.23
2022-10-14T15:39:02.662Z,25.38
2022-10-14T15:41:30.124Z,26.48
2022-10-14T15:43:57.445Z,24.70
2022-10-14T15:46:43.393Z,26.37
2022-10-14T15:49:15.445Z,26.25
2022-10-14T15:51:42.745Z,25.92
2022-10-14T15:54:11.403Z,26.33
2022-10-14T15:56:39.534Z,26.98
2022-10-14T15:59:06.811Z,27.37
2022-10-14T16:01:35.806Z,27.17
2022-10-14T16:04:03.960Z,26.90
2022-10-14T16:06:32.697Z,27.35
2022-10-14T16:09:00.124Z,26.88
2022-10-14T16:11:29.545Z,27.10
2022-10-14T16:13:57.177Z,28.80
2022-10-14T16:16:33.052Z,29.10
2022-10-14T16:19:03.590Z,30.67
2022-10-14T16:21:31.183Z,31.65
2022-10-14T16:24:01.246Z,30.00
2022-10-14T16:26:29.641Z,32.65
2022-10-14T16:28:57.278Z,33.17
2022-10-14T16:31:24.719Z,34.35
2022-10-14T16:33:57.016Z,41.40
2022-10-14T16:36:26.211Z,39.30
2022-10-14T16:38:56.879Z,31.45
2022-10-14T16:41:27.529Z,37.65
2022-10-14T16:43:54.919Z,40.10
2022-10-14T16:46:42.132Z,39.45
2022-10-14T16:49:09.444Z,38.50
2022-10-14T16:51:36.808Z,37.17
2022-10-14T16:54:04.282Z,37.50
2022-10-14T16:56:50.104Z,36.35
2022-10-14T16:59:17.458Z,37.10
2022-10-14T17:01:45.018Z,33.93
2022-10-14T17:04:12.720Z,36.95
2022-10-14T17:06:40.310Z,36.25
2022-10-14T17:09:09.105Z,36.25
2022-10-14T17:11:36.403Z,36.10
2022-10-14T17:14:03.966Z,34.53
2022-10-14T17:16:31.379Z,36.53
2022-10-14T17:18:59.162Z,38.40
2022-10-14T17:21:29.611Z,42.35
2022-10-14T17:24:03.680Z,41.05
2022-10-14T17:26:31.832Z,42.50
2022-10-14T17:28:59.175Z,40.50
2022-10-14T17:31:26.789Z,40.90
2022-10-14T17:33:54.097Z,40.08
2022-10-14T17:36:23.057Z,41.38
2022-10-14T17:38:51.085Z,43.93
2022-10-14T17:41:18.838Z,41.67
2022-10-14T17:43:50.101Z,42.20
2022-10-14T17:46:20.846Z,42.42
2022-10-14T17:48:52.993Z,44.75
2022-10-14T17:51:23.024Z,45.97
2022-10-14T17:53:57.080Z,43.97
2022-10-14T17:56:24.581Z,46.15
2022-10-14T17:58:55.786Z,43.33
2022-10-14T18:01:36.908Z,44.92
2022-10-14T18:04:05.123Z,44.00
2022-10-14T18:06:33.666Z,43.95
2022-10-14T18:09:02.279Z,43.97
2022-10-14T18:11:49.707Z,44.38
2022-10-14T18:14:18.397Z,45.22
2022-10-14T18:16:47.493Z,47.50
2022-10-14T18:19:16.788Z,45.80
2022-10-14T18:21:44.534Z,46.70
2022-10-14T18:24:12.236Z,45.20
2022-10-14T18:26:40.830Z,47.75
2022-10-14T18:29:08.705Z,52.03
2022-10-14T18:31:36.088Z,47.38
2022-10-14T18:34:03.818Z,47.50
2022-10-14T18:36:33.154Z,44.17
2022-10-14T18:39:02.159Z,44.60
2022-10-14T18:41:29.911Z,45.23
2022-10-14T18:44:00.090Z,42.90
2022-10-14T18:46:29.668Z,43.80
2022-10-14T18:48:57.877Z,40.65
2022-10-14T18:51:29.882Z,43.17
2022-10-14T18:53:59.193Z,40.77
2022-10-14T18:56:31.788Z,44.00
2022-10-14T18:59:01.407Z,43.17
2022-10-14T19:01:29.244Z,41.53
2022-10-14T19:03:56.931Z,40.67
2022-10-14T19:06:24.563Z,36.93
2022-10-14T19:08:52.175Z,36.75
2022-10-14T19:11:21.261Z,36.17
2022-10-14T19:13:50.215Z,37.00
2022-10-14T19:16:19.249Z,36.35
2022-10-14T19:18:46.731Z,35.33
2022-10-14T19:21:15.214Z,35.40
2022-10-14T19:23:43.496Z,37.50
2022-10-14T19:28:50.042Z,36.85
2022-10-14T19:31:19.548Z,35.00
2022-10-14T19:33:46.953Z,35.60
2022-10-14T19:36:15.857Z,36.05
2022-10-14T19:38:52.304Z,37.03
2022-10-14T19:41:19.565Z,34.65
2022-10-14T19:43:46.872Z,36.27
2022-10-14T19:46:14.448Z,34.80
2022-10-14T19:48:41.684Z,34.88
2022-10-14T19:51:11.865Z,34.97
2022-10-14T19:53:39.311Z,33.53
2022-10-14T19:56:08.555Z,35.90
2022-10-14T19:58:38.558Z,34.38
2022-10-14T20:01:08.452Z,32.58
2022-10-14T20:03:35.853Z,34.80
2022-10-14T20:06:03.576Z,32.65
2022-10-14T20:08:31.017Z,34.97
2022-10-14T20:11:01.995Z,35.22
2022-10-14T20:13:29.404Z,33.80
2022-10-14T20:15:58.348Z,37.47
2022-10-14T20:18:25.707Z,36.28
2022-10-14T20:20:53.043Z,35.30
2022-10-14T20:23:20.396Z,34.70
2022-10-14T20:25:47.890Z,35.63
2022-10-14T20:28:19.606Z,34.22
2022-10-14T20:30:47.376Z,35.17
2022-10-14T20:33:14.636Z,34.77
2022-10-14T20:35:41.992Z,33.20
2022-10-14T20:38:09.233Z,33.55
2022-10-14T20:40:36.601Z,32.45
2022-10-14T20:43:04.036Z,32.50
2022-10-14T20:45:31.855Z,37.60
2022-10-14T20:47:59.084Z,31.45
2022-10-14T20:50:26.429Z,31.05
2022-10-14T20:52:53.639Z,32.10
2022-10-14T20:55:20.934Z,34.28
2022-10-14T20:57:48.326Z,32.40
2022-10-14T21:00:15.611Z,30.33
2022-10-14T21:05:11.076Z,33.15
2022-10-14T21:07:38.281Z,33.28
2022-10-14T21:10:06.914Z,32.83
2022-10-14T21:12:34.284Z,34.60
2022-10-14T21:15:01.591Z,34.65
2022-10-14T21:17:29.989Z,33.47
2022-10-14T21:19:57.318Z,32.10
2022-10-14T21:22:25.174Z,31.70
2022-10-14T21:24:52.636Z,32.55
2022-10-14T21:27:19.932Z,32.35
2022-10-14T21:29:49.442Z,32.60
2022-10-14T21:32:16.714Z,31.45
2022-10-14T21:34:44.164Z,31.03
2022-10-14T21:37:12.221Z,33.08
2022-10-14T21:39:39.500Z,32.30
2022-10-14T21:42:06.810Z,32.35
2022-10-14T21:44:34.132Z,31.02
2022-10-14T21:47:01.426Z,30.50
2022-10-14T21:49:28.679Z,31.60
2022-10-14T21:51:55.915Z,31.17
2022-10-14T21:54:24.854Z,31.00
2022-10-14T21:56:52.188Z,29.92
2022-10-14T21:59:19.519Z,29.40
2022-10-14T22:01:46.987Z,30.77
2022-10-14T22:04:14.268Z,30.35
2022-10-14T22:06:41.490Z,28.92
2022-10-14T22:09:08.877Z,28.75
2022-10-14T22:11:37.905Z,30.63
2022-10-14T22:14:06.338Z,29.65
2022-10-14T22:16:33.737Z,29.92
2022-10-14T22:19:01.663Z,30.45
2022-10-14T22:21:30.040Z,29.95
2022-10-14T22:23:58.503Z,29.23
2022-10-14T22:26:26.544Z,28.85
2022-10-14T22:29:20.736Z,30.70
2022-10-14T22:31:48.003Z,31.02
2022-10-14T22:34:16.509Z,31.48
2022-10-14T22:36:44.009Z,30.93
2022-10-14T22:39:13.437Z,29.85
2022-10-14T22:41:40.711Z,29.98
2022-10-14T22:44:09.285Z,28.83
2022-10-14T22:46:37.184Z,28.35
2022-10-14T22:49:04.636Z,30.73
2022-10-14T22:51:36.792Z,29.65
2022-10-14T22:54:04.245Z,30.65
2022-10-14T22:56:31.641Z,29.85
2022-10-14T22:59:01.311Z,29.60
2022-10-14T23:01:28.919Z,29.37
2022-10-14T23:03:57.098Z,30.05
2022-10-14T23:06:24.384Z,28.90
2022-10-14T23:08:51.689Z,28.88
2022-10-14T23:11:20.245Z,29.70
2022-10-14T23:13:47.663Z,29.40
2022-10-14T23:16:16.449Z,28.50
2022-10-14T23:18:43.854Z,28.33
2022-10-14T23:21:15.226Z,27.95
2022-10-14T23:23:42.849Z,26.90
2022-10-14T23:26:11.118Z,26.23
2022-10-14T23:28:38.554Z,26.73
2022-10-14T23:31:12.950Z,27.73
2022-10-14T23:33:40.351Z,28.23
2022-10-14T23:36:08.932Z,29.20
2022-10-14T23:38:36.493Z,28.13
2022-10-14T23:41:04.017Z,27.55
2022-10-14T23:43:31.505Z,28.92
2022-10-14T23:45:58.743Z,27.05
2022-10-14T23:48:26.215Z,28.05
2022-10-14T23:50:53.538Z,28.50
2022-10-14T23:53:20.906Z,26.73
2022-10-14T23:55:48.168Z,27.27
2022-10-14T23:58:15.399Z,25.77
